createdAt,value
2023-09-08T00:01:47.492Z,62.79
2023-09-08T00:04:14.139Z,62.75
2023-09-08T00:06:40.803Z,62.91
2023-09-08T00:09:08.142Z,62.90
2023-09-08T00:11:34.827Z,62.92
2023-09-08T00:14:01.332Z,62.93
2023-09-08T00:16:27.899Z,62.89
2023-09-08T00:18:54.470Z,62.86
2023-09-08T00:21:20.935Z,62.89
2023-09-08T00:23:47.410Z,62.98
2023-09-08T00:26:13.936Z,63.11
2023-09-08T00:28:40.430Z,63.08
2023-09-08T00:31:06.936Z,63.09
2023-09-08T00:33:33.545Z,63.15
2023-09-08T00:36:00.122Z,63.13
2023-09-08T00:38:26.686Z,63.21
2023-09-08T00:40:53.322Z,63.24
2023-09-08T00:43:19.836Z,63.23
2023-09-08T00:45:47.151Z,63.35
2023-09-08T00:48:14.052Z,63.39
2023-09-08T00:50:40.788Z,63.28
2023-09-08T00:53:08.566Z,63.24
2023-09-08T00:55:35.907Z,63.20
2023-09-08T00:58:03.025Z,63.22
2023-09-08T01:00:29.525Z,63.16
2023-09-08T01:02:56.268Z,63.14
2023-09-08T01:05:25.781Z,63.19
2023-09-08T01:07:54.273Z,63.19
2023-09-08T01:10:20.835Z,63.21
2023-09-08T01:12:47.391Z,63.36
2023-09-08T01:15:14.146Z,63.43
2023-09-08T01:17:40.681Z,63.42
2023-09-08T01:20:23.442Z,63.54
2023-09-08T01:22:58.977Z,63.59
2023-09-08T01:25:27.041Z,63.72
2023-09-08T01:27:55.173Z,63.81
2023-09-08T01:30:27.558Z,64.05
2023-09-08T01:32:55.590Z,64.07
2023-09-08T01:35:22.579Z,64.20
2023-09-08T01:37:50.065Z,64.30
2023-09-08T01:40:17.089Z,64.44
2023-09-08T01:42:43.583Z,64.50
2023-09-08T01:45:10.089Z,64.67
2023-09-08T01:47:36.729Z,64.67
2023-09-08T01:50:03.627Z,64.74
2023-09-08T01:52:30.175Z,64.82
2023-09-08T01:54:56.691Z,65.05
2023-09-08T01:57:23.386Z,65.12
2023-09-08T01:59:49.966Z,65.11
2023-09-08T02:02:16.447Z,65.24
2023-09-08T02:04:42.984Z,65.33
2023-09-08T02:07:09.549Z,65.54
2023-09-08T02:09:38.072Z,65.50
2023-09-08T02:12:05.159Z,65.57
2023-09-08T02:14:31.839Z,65.68
2023-09-08T02:16:58.528Z,65.66
2023-09-08T02:19:25.159Z,65.89
2023-09-08T02:21:51.719Z,66.06
2023-09-08T02:24:18.326Z,66.09
2023-09-08T02:26:45.322Z,66.28
2023-09-08T02:29:11.844Z,66.32
2023-09-08T02:31:38.337Z,66.38
2023-09-08T02:34:04.811Z,66.37
2023-09-08T02:36:31.355Z,66.41
2023-09-08T02:38:58.571Z,66.44
2023-09-08T02:41:25.089Z,66.37
2023-09-08T02:43:51.843Z,66.30
2023-09-08T02:46:18.334Z,66.16
2023-09-08T02:48:44.832Z,66.35
2023-09-08T02:51:11.352Z,66.23
2023-09-08T02:53:37.813Z,66.15
2023-09-08T02:56:04.631Z,66.05
2023-09-08T02:58:31.177Z,65.93
2023-09-08T03:00:57.739Z,66.00
2023-09-08T03:03:24.346Z,66.05
2023-09-08T03:05:55.162Z,66.12
2023-09-08T03:08:24.012Z,66.12
2023-09-08T03:10:50.537Z,66.21
2023-09-08T03:13:17.010Z,66.40
2023-09-08T03:15:43.462Z,66.39
2023-09-08T03:18:10.043Z,66.42
2023-09-08T03:20:36.555Z,66.47
2023-09-08T03:23:03.063Z,66.55
2023-09-08T03:25:29.574Z,66.69
2023-09-08T03:27:56.072Z,66.66
2023-09-08T03:30:22.659Z,66.71
2023-09-08T03:32:49.506Z,66.81
2023-09-08T03:35:16.098Z,66.80
2023-09-08T03:37:42.576Z,66.78
2023-09-08T03:40:09.669Z,66.80
2023-09-08T03:42:36.233Z,66.85
2023-09-08T03:45:02.797Z,66.90
2023-09-08T03:47:29.339Z,66.90
2023-09-08T03:49:55.916Z,67.06
2023-09-08T03:52:22.545Z,66.95
2023-09-08T03:54:49.047Z,66.84
2023-09-08T03:57:15.546Z,66.89
2023-09-08T03:59:42.053Z,67.02
2023-09-08T04:02:08.664Z,66.89
2023-09-08T04:04:35.189Z,66.96
2023-09-08T04:07:01.714Z,66.92
2023-09-08T04:09:28.278Z,66.95
2023-09-08T04:11:55.102Z,66.95
2023-09-08T04:14:22.362Z,67.00
2023-09-08T04:16:48.854Z,67.04
2023-09-08T04:19:15.321Z,67.04
2023-09-08T04:21:42.369Z,67.04
2023-09-08T04:24:08.895Z,67.10
2023-09-08T04:26:35.397Z,67.07
2023-09-08T04:29:01.847Z,67.20
2023-09-08T04:31:28.381Z,67.13
2023-09-08T04:33:55.694Z,67.19
2023-09-08T04:36:22.449Z,67.21
2023-09-08T04:38:48.943Z,67.22
2023-09-08T04:41:15.463Z,67.20
2023-09-08T04:43:42.025Z,67.23
2023-09-08T04:46:08.547Z,67.23
2023-09-08T04:48:35.258Z,67.14
2023-09-08T04:51:02.220Z,67.12
2023-09-08T04:53:28.756Z,67.19
2023-09-08T04:55:55.267Z,67.09
2023-09-08T04:58:21.777Z,67.15
2023-09-08T05:00:48.330Z,67.16
2023-09-08T05:03:14.980Z,67.06
2023-09-08T05:05:41.554Z,67.11
2023-09-08T05:08:08.082Z,67.06
2023-09-08T05:10:34.704Z,67.08
2023-09-08T05:13:01.201Z,67.06
2023-09-08T05:15:27.713Z,67.00
2023-09-08T05:17:54.256Z,67.00
2023-09-08T05:20:20.925Z,67.01
2023-09-08T05:22:47.414Z,67.00
2023-09-08T05:25:13.913Z,67.02
2023-09-08T05:27:40.545Z,66.92
2023-09-08T05:30:07.764Z,66.83
2023-09-08T05:32:34.443Z,66.77
2023-09-08T05:35:01.021Z,66.68
2023-09-08T05:37:27.517Z,66.61
2023-09-08T05:39:54.061Z,66.53
2023-09-08T05:42:20.553Z,66.28
2023-09-08T05:44:47.043Z,66.31
2023-09-08T05:47:13.574Z,66.14
2023-09-08T05:49:40.206Z,65.99
2023-09-08T05:52:06.850Z,65.85
2023-09-08T05:54:33.359Z,65.69
2023-09-08T05:56:59.887Z,65.58
2023-09-08T05:59:26.458Z,65.38
2023-09-08T06:01:53.003Z,65.33
2023-09-08T06:04:19.646Z,65.14
2023-09-08T06:06:46.208Z,65.13
2023-09-08T06:09:12.710Z,65.22
2023-09-08T06:11:39.234Z,65.25
2023-09-08T06:14:05.723Z,64.91
2023-09-08T06:16:32.253Z,64.74
2023-09-08T06:18:58.780Z,64.38
2023-09-08T06:21:25.445Z,64.19
2023-09-08T06:23:51.994Z,63.85
2023-09-08T06:26:18.473Z,63.46
2023-09-08T06:28:45.034Z,63.22
2023-09-08T06:31:11.675Z,63.16
2023-09-08T06:33:38.329Z,63.05
2023-09-08T06:36:05.172Z,62.83
2023-09-08T06:38:31.713Z,62.52
2023-09-08T06:40:58.313Z,62.30
2023-09-08T06:43:25.184Z,62.12
2023-09-08T06:45:51.716Z,62.19
2023-09-08T06:48:18.258Z,62.00
2023-09-08T06:50:45.008Z,61.62
2023-09-08T06:53:11.680Z,61.50
2023-09-08T06:55:38.154Z,61.19
2023-09-08T06:58:04.979Z,61.10
2023-09-08T07:00:31.563Z,60.97
2023-09-08T07:03:00.254Z,60.80
2023-09-08T07:05:26.953Z,60.83
2023-09-08T07:07:53.497Z,60.46
2023-09-08T07:10:20.950Z,60.29
2023-09-08T07:12:47.463Z,59.72
2023-09-08T07:15:13.964Z,59.35
2023-09-08T07:17:40.501Z,59.17
2023-09-08T07:20:07.463Z,59.49
2023-09-08T07:22:34.044Z,59.74
2023-09-08T07:25:00.597Z,59.70
2023-09-08T07:27:27.090Z,59.69
2023-09-08T07:29:53.716Z,59.62
2023-09-08T07:32:20.226Z,59.30
2023-09-08T07:34:49.319Z,58.92
2023-09-08T07:37:15.841Z,58.80
2023-09-08T07:39:42.311Z,58.64
2023-09-08T07:42:08.776Z,58.48
2023-09-08T07:44:35.290Z,58.20
2023-09-08T07:47:01.836Z,58.11
2023-09-08T07:49:28.408Z,57.55
2023-09-08T07:51:54.919Z,57.08
2023-09-08T07:54:21.419Z,57.13
2023-09-08T07:56:48.436Z,56.71
2023-09-08T07:59:15.003Z,56.71
2023-09-08T08:01:41.675Z,56.95
2023-09-08T08:04:08.366Z,56.72
2023-09-08T08:06:35.061Z,55.65
2023-09-08T08:09:03.058Z,55.28
2023-09-08T08:11:29.974Z,55.04
2023-09-08T08:13:56.596Z,54.87
2023-09-08T08:16:23.395Z,54.41
2023-09-08T08:18:50.351Z,54.32
2023-09-08T08:21:16.921Z,53.74
2023-09-08T08:23:43.596Z,53.12
2023-09-08T08:26:10.085Z,52.91
2023-09-08T08:28:36.933Z,52.42
2023-09-08T08:31:03.726Z,52.39
2023-09-08T08:33:30.521Z,52.24
2023-09-08T08:35:57.321Z,51.40
2023-09-08T08:38:23.851Z,50.88
2023-09-08T08:40:50.413Z,50.54
2023-09-08T08:43:17.068Z,50.02
2023-09-08T08:45:44.316Z,50.02
2023-09-08T08:48:11.700Z,49.84
2023-09-08T08:50:39.624Z,49.77
2023-09-08T08:53:07.483Z,49.52
2023-09-08T08:55:35.438Z,49.69
2023-09-08T08:58:07.136Z,49.29
2023-09-08T09:00:37.066Z,48.91
2023-09-08T09:03:14.836Z,48.58
2023-09-08T09:05:44.833Z,47.99
2023-09-08T09:08:16.223Z,48.01
2023-09-08T09:10:42.751Z,48.33
2023-09-08T09:13:09.275Z,48.17
2023-09-08T09:15:35.881Z,47.57
2023-09-08T09:18:06.736Z,47.08
2023-09-08T09:20:33.854Z,46.80
2023-09-08T09:23:00.774Z,46.56
2023-09-08T09:25:30.918Z,45.64
2023-09-08T09:28:02.567Z,45.06
2023-09-08T09:30:46.570Z,45.18
2023-09-08T09:33:13.193Z,45.27
2023-09-08T09:35:55.239Z,45.35
2023-09-08T09:38:22.912Z,44.47
2023-09-08T09:40:49.709Z,44.29
2023-09-08T09:43:17.342Z,43.91
2023-09-08T09:45:44.417Z,43.31
2023-09-08T09:48:12.231Z,43.42
2023-09-08T09:50:41.404Z,43.22
2023-09-08T09:53:15.526Z,42.92
2023-09-08T09:55:44.621Z,42.85
2023-09-08T09:58:12.399Z,42.51
2023-09-08T10:00:40.026Z,42.26
2023-09-08T10:03:07.126Z,41.35
2023-09-08T10:05:34.864Z,41.07
2023-09-08T10:08:01.806Z,40.47
2023-09-08T10:10:30.684Z,39.58
2023-09-08T10:13:02.641Z,37.85
2023-09-08T10:15:31.640Z,36.46
2023-09-08T10:17:58.757Z,35.91
2023-09-08T10:20:26.532Z,34.16
2023-09-08T10:23:07.633Z,32.80
2023-09-08T10:25:38.568Z,31.31
2023-09-08T10:28:06.014Z,29.63
2023-09-08T10:30:33.319Z,27.92
2023-09-08T10:33:01.631Z,26.17
2023-09-08T10:35:29.218Z,24.93
2023-09-08T10:38:23.795Z,23.86
2023-09-08T10:40:50.484Z,22.90
2023-09-08T10:43:17.065Z,22.18
2023-09-08T10:45:43.730Z,21.52
2023-09-08T10:48:10.335Z,20.55
2023-09-08T10:50:41.134Z,19.77
2023-09-08T10:53:13.466Z,19.16
2023-09-08T10:56:06.446Z,18.77
2023-09-08T10:58:38.374Z,18.33
2023-09-08T11:01:05.913Z,17.58
2023-09-08T11:03:38.913Z,17.01
2023-09-08T11:06:10.233Z,16.50
2023-09-08T11:08:39.762Z,16.18
2023-09-08T11:11:07.288Z,15.90
2023-09-08T11:13:33.943Z,15.45
2023-09-08T11:16:00.504Z,15.31
2023-09-08T11:18:35.109Z,14.85
2023-09-08T11:21:03.833Z,14.53
2023-09-08T11:23:31.066Z,14.27
2023-09-08T11:25:58.050Z,14.56
2023-09-08T11:28:25.788Z,14.88
2023-09-08T11:30:52.468Z,15.51
2023-09-08T11:33:21.926Z,16.19
2023-09-08T11:35:49.173Z,16.58
2023-09-08T11:38:15.729Z,17.62
2023-09-08T11:40:42.779Z,18.08
2023-09-08T11:43:09.369Z,19.00
2023-09-08T11:45:36.971Z,19.49
2023-09-08T11:48:05.065Z,19.95
2023-09-08T11:50:32.817Z,20.18
2023-09-08T11:52:59.346Z,21.02
2023-09-08T11:55:26.267Z,22.66
2023-09-08T11:57:56.945Z,23.64
2023-09-08T12:00:24.751Z,23.86
2023-09-08T12:02:51.490Z,24.15
2023-09-08T12:05:28.790Z,24.79
2023-09-08T12:07:56.717Z,25.58
2023-09-08T12:10:24.843Z,25.54
2023-09-08T12:12:56.242Z,25.97
2023-09-08T12:15:33.624Z,25.81
2023-09-08T12:18:01.762Z,26.59
2023-09-08T12:20:28.510Z,27.04
2023-09-08T12:22:55.091Z,28.19
2023-09-08T12:25:21.639Z,28.87
2023-09-08T12:27:51.481Z,29.53
2023-09-08T12:30:19.647Z,29.37
2023-09-08T12:32:48.562Z,28.77
2023-09-08T12:35:23.003Z,29.12
2023-09-08T12:38:04.347Z,29.14
2023-09-08T12:40:34.119Z,29.23
2023-09-08T12:43:04.051Z,28.89
2023-09-08T12:45:42.491Z,28.97
2023-09-08T12:48:09.112Z,28.88
2023-09-08T12:50:35.783Z,29.07
2023-09-08T12:53:02.349Z,29.33
2023-09-08T12:55:28.814Z,29.31
2023-09-08T12:57:55.308Z,29.29
2023-09-08T13:00:23.509Z,29.65
2023-09-08T13:02:50.772Z,29.47
2023-09-08T13:05:17.728Z,29.26
2023-09-08T13:07:44.371Z,29.54
2023-09-08T13:10:11.128Z,29.63
2023-09-08T13:12:37.720Z,29.65
2023-09-08T13:15:04.646Z,29.82
2023-09-08T13:17:31.183Z,29.57
2023-09-08T13:19:57.704Z,29.46
2023-09-08T13:22:24.187Z,30.10
2023-09-08T13:24:50.719Z,29.97
2023-09-08T13:27:17.237Z,30.26
2023-09-08T13:29:43.714Z,30.01
2023-09-08T13:32:10.270Z,29.66
2023-09-08T13:34:36.915Z,29.40
2023-09-08T13:37:03.500Z,29.62
2023-09-08T13:39:29.990Z,29.65
2023-09-08T13:41:57.536Z,29.38
2023-09-08T13:44:25.588Z,29.50
2023-09-08T13:46:53.621Z,29.20
2023-09-08T13:49:20.937Z,29.30
2023-09-08T13:51:49.538Z,29.75
2023-09-08T13:54:18.349Z,29.17
2023-09-08T13:56:45.423Z,29.10
2023-09-08T13:59:12.857Z,29.22
2023-09-08T14:01:41.160Z,28.72
2023-09-08T14:04:10.820Z,28.77
2023-09-08T14:06:41.119Z,28.86
2023-09-08T14:14:07.335Z,29.28
2023-09-08T14:16:33.953Z,29.99
2023-09-08T14:19:00.942Z,30.43
2023-09-08T14:21:30.224Z,30.49
2023-09-08T14:23:57.157Z,30.40
2023-09-08T14:26:23.789Z,30.60
2023-09-08T14:28:50.555Z,30.32
2023-09-08T14:31:17.111Z,30.21
2023-09-08T14:33:43.787Z,30.45
2023-09-08T14:36:10.349Z,30.68
2023-09-08T14:38:36.849Z,30.52
2023-09-08T14:41:03.774Z,29.84
2023-09-08T14:43:30.658Z,29.52
2023-09-08T14:45:57.355Z,29.80
2023-09-08T14:48:24.607Z,29.71
2023-09-08T14:50:51.794Z,29.23
2023-09-08T14:53:19.186Z,29.71
2023-09-08T14:55:45.918Z,29.81
2023-09-08T14:58:12.557Z,30.35
2023-09-08T15:00:40.108Z,30.05
2023-09-08T15:03:07.623Z,30.02
2023-09-08T15:05:35.128Z,30.40
2023-09-08T15:08:02.719Z,30.61
2023-09-08T15:10:29.327Z,31.06
2023-09-08T15:12:56.039Z,30.73
2023-09-08T15:15:22.577Z,30.81
2023-09-08T15:17:49.159Z,30.82
2023-09-08T15:20:15.755Z,30.56
2023-09-08T15:22:42.349Z,30.62
2023-09-08T15:25:09.352Z,30.64
2023-09-08T15:27:36.255Z,30.86
2023-09-08T15:30:02.872Z,30.81
2023-09-08T15:32:29.409Z,31.21
2023-09-08T15:34:55.926Z,31.44
2023-09-08T15:37:22.552Z,31.68
2023-09-08T15:39:49.052Z,31.85
2023-09-08T15:42:15.676Z,32.12
2023-09-08T15:44:42.264Z,32.33
2023-09-08T15:47:08.764Z,32.64
2023-09-08T15:49:35.573Z,32.83
2023-09-08T15:52:15.718Z,32.73
2023-09-08T15:54:43.183Z,32.88
2023-09-08T15:57:09.831Z,33.24
2023-09-08T15:59:36.333Z,33.27
2023-09-08T16:02:03.051Z,33.11
2023-09-08T16:04:29.741Z,32.80
2023-09-08T16:06:56.524Z,32.87
2023-09-08T16:09:23.068Z,33.27
2023-09-08T16:11:49.523Z,33.72
2023-09-08T16:14:16.007Z,33.88
2023-09-08T16:16:42.592Z,34.60
2023-09-08T16:19:13.270Z,35.04
2023-09-08T16:21:39.884Z,34.41
2023-09-08T16:24:09.116Z,34.42
2023-09-08T16:26:35.698Z,35.22
2023-09-08T16:29:02.228Z,36.01
2023-09-08T16:31:28.816Z,36.45
2023-09-08T16:33:56.664Z,36.29
2023-09-08T16:36:23.191Z,36.69
2023-09-08T16:38:49.691Z,37.31
2023-09-08T16:41:18.594Z,37.73
2023-09-08T16:43:45.102Z,38.42
2023-09-08T16:46:11.672Z,38.80
2023-09-08T16:48:38.235Z,38.99
2023-09-08T16:51:04.697Z,39.40
2023-09-08T16:53:31.187Z,39.85
2023-09-08T16:55:57.724Z,40.24
2023-09-08T16:58:25.009Z,40.40
2023-09-08T17:00:51.552Z,40.76
2023-09-08T17:03:18.338Z,41.07
2023-09-08T17:05:45.026Z,41.65
2023-09-08T17:08:13.130Z,41.91
2023-09-08T17:10:39.725Z,42.05
2023-09-08T17:13:06.245Z,42.30
2023-09-08T17:15:32.800Z,42.49
2023-09-08T17:17:59.359Z,42.83
2023-09-08T17:20:25.932Z,43.10
2023-09-08T17:22:52.533Z,43.39
2023-09-08T17:25:19.092Z,43.67
2023-09-08T17:27:45.622Z,43.99
2023-09-08T17:30:12.546Z,44.32
2023-09-08T17:32:39.259Z,44.66
2023-09-08T17:35:07.117Z,45.01
2023-09-08T17:37:33.659Z,45.32
2023-09-08T17:40:02.765Z,45.55
2023-09-08T17:42:29.262Z,45.76
2023-09-08T17:44:55.756Z,45.86
2023-09-08T17:47:22.278Z,46.06
2023-09-08T17:49:48.794Z,46.27
2023-09-08T17:52:15.323Z,46.47
2023-09-08T17:54:41.815Z,46.65
2023-09-08T17:57:11.163Z,46.94
2023-09-08T17:59:37.776Z,47.35
2023-09-08T18:02:04.761Z,47.44
2023-09-08T18:04:36.004Z,47.66
2023-09-08T18:07:02.612Z,47.74
2023-09-08T18:09:29.764Z,48.04
2023-09-08T18:11:56.338Z,48.57
2023-09-08T18:14:22.823Z,48.55
2023-09-08T18:16:49.319Z,48.73
2023-09-08T18:19:15.983Z,49.19
2023-09-08T18:21:42.582Z,49.24
2023-09-08T18:24:09.215Z,49.43
2023-09-08T18:26:35.798Z,49.59
2023-09-08T18:29:02.272Z,49.96
2023-09-08T18:31:28.841Z,50.07
2023-09-08T18:33:55.421Z,50.23
2023-09-08T18:36:21.948Z,50.70
2023-09-08T18:38:48.435Z,50.77
2023-09-08T18:41:14.941Z,50.93
2023-09-08T18:43:41.510Z,51.03
2023-09-08T18:46:08.096Z,51.27
2023-09-08T18:48:34.660Z,51.65
2023-09-08T18:51:01.388Z,51.69
2023-09-08T18:53:27.957Z,51.91
2023-09-08T18:55:54.720Z,52.03
2023-09-08T18:58:21.572Z,52.00
2023-09-08T19:00:48.061Z,52.14
2023-09-08T19:03:17.545Z,52.14
2023-09-08T19:05:44.204Z,52.28
2023-09-08T19:08:11.889Z,52.54
2023-09-08T19:10:38.370Z,52.47
2023-09-08T19:13:06.103Z,52.39
2023-09-08T19:15:32.903Z,52.62
2023-09-08T19:17:59.646Z,52.81
2023-09-08T19:20:26.299Z,52.82
2023-09-08T19:22:52.829Z,52.97
2023-09-08T19:25:19.402Z,52.96
2023-09-08T19:27:45.953Z,52.39
2023-09-08T19:30:15.040Z,52.85
2023-09-08T19:32:41.581Z,52.83
2023-09-08T19:35:09.153Z,52.74
2023-09-08T19:37:35.809Z,52.85
2023-09-08T19:40:02.370Z,52.84
2023-09-08T19:42:28.865Z,52.87
2023-09-08T19:44:55.370Z,53.08
2023-09-08T19:47:22.207Z,53.06
2023-09-08T19:49:48.759Z,53.13
2023-09-08T19:52:15.687Z,52.95
2023-09-08T19:54:42.318Z,52.98
2023-09-08T19:57:08.840Z,52.86
2023-09-08T19:59:35.835Z,52.75
2023-09-08T20:02:05.195Z,52.73
2023-09-08T20:04:31.850Z,52.96
2023-09-08T20:06:58.398Z,52.98
2023-09-08T20:09:25.044Z,52.95
2023-09-08T20:11:51.543Z,53.05
2023-09-08T20:14:18.291Z,53.03
2023-09-08T20:16:44.832Z,53.25
2023-09-08T20:19:11.449Z,53.29
2023-09-08T20:21:37.931Z,53.47
2023-09-08T20:24:04.732Z,53.11
2023-09-08T20:26:31.414Z,53.11
2023-09-08T20:28:58.096Z,53.26
2023-09-08T20:31:24.709Z,53.34
2023-09-08T20:33:51.293Z,53.28
2023-09-08T20:36:18.002Z,53.35
2023-09-08T20:38:44.679Z,53.38
2023-09-08T20:41:12.195Z,53.43
2023-09-08T20:43:39.539Z,53.23
2023-09-08T20:46:06.421Z,53.34
2023-09-08T20:48:34.997Z,53.34
2023-09-08T20:51:11.185Z,53.49
2023-09-08T20:53:40.356Z,53.56
2023-09-08T20:56:08.449Z,53.54
2023-09-08T20:58:34.972Z,53.94
2023-09-08T21:01:01.564Z,53.77
2023-09-08T21:03:28.776Z,53.87
2023-09-08T21:05:55.296Z,54.01
2023-09-08T21:08:22.011Z,54.15
2023-09-08T21:10:49.082Z,54.32
2023-09-08T21:13:16.051Z,54.60
2023-09-08T21:15:43.342Z,54.70
2023-09-08T21:18:10.007Z,55.10
2023-09-08T21:20:36.841Z,55.33
2023-09-08T21:23:03.734Z,55.57
2023-09-08T21:25:32.135Z,55.68
2023-09-08T21:27:59.597Z,55.92
2023-09-08T21:30:26.432Z,56.11
2023-09-08T21:32:56.112Z,56.45
2023-09-08T21:35:22.689Z,56.66
2023-09-08T21:37:49.317Z,56.92
2023-09-08T21:40:15.860Z,57.10
2023-09-08T21:42:42.659Z,57.22
2023-09-08T21:45:09.522Z,57.51
2023-09-08T21:47:36.104Z,57.56
2023-09-08T21:50:02.773Z,57.69
2023-09-08T21:52:38.454Z,57.92
2023-09-08T21:55:06.742Z,58.10
2023-09-08T21:57:33.296Z,58.13
2023-09-08T22:00:01.253Z,58.33
2023-09-08T22:02:29.072Z,58.29
2023-09-08T22:04:55.987Z,58.45
2023-09-08T22:07:22.808Z,58.65
2023-09-08T22:09:51.871Z,58.88
2023-09-08T22:12:18.408Z,58.98
2023-09-08T22:14:44.935Z,59.16
2023-09-08T22:17:11.441Z,59.25
2023-09-08T22:19:37.963Z,59.45
2023-09-08T22:22:04.643Z,59.49
2023-09-08T22:24:31.157Z,59.58
2023-09-08T22:26:57.740Z,59.70
2023-09-08T22:29:24.321Z,59.86
2023-09-08T22:31:51.020Z,59.81
2023-09-08T22:34:17.573Z,59.94
2023-09-08T22:36:44.126Z,59.74
2023-09-08T22:39:10.629Z,59.92
2023-09-08T22:41:37.139Z,60.04
2023-09-08T22:44:03.741Z,60.16
2023-09-08T22:46:30.444Z,60.20
2023-09-08T22:48:56.941Z,60.34
2023-09-08T22:51:23.444Z,60.45
2023-09-08T22:53:49.915Z,60.35
2023-09-08T22:56:16.540Z,60.62
2023-09-08T22:58:43.130Z,60.69
2023-09-08T23:01:09.822Z,60.66
2023-09-08T23:03:36.877Z,60.83
2023-09-08T23:06:03.949Z,60.92
2023-09-08T23:08:30.437Z,61.17
2023-09-08T23:10:57.179Z,61.35
2023-09-08T23:13:23.774Z,61.57
2023-09-08T23:15:50.247Z,61.59
2023-09-08T23:18:16.877Z,61.80
2023-09-08T23:20:43.451Z,62.04
2023-09-08T23:23:09.979Z,62.08
2023-09-08T23:25:36.529Z,62.19
2023-09-08T23:28:03.255Z,62.31
2023-09-08T23:30:29.752Z,62.33
2023-09-08T23:32:56.348Z,62.42
2023-09-08T23:35:22.915Z,62.51
2023-09-08T23:37:49.490Z,62.63
2023-09-08T23:40:16.047Z,62.72
2023-09-08T23:42:43.183Z,62.74
2023-09-08T23:45:10.108Z,62.82
2023-09-08T23:47:38.496Z,62.92
2023-09-08T23:50:05.625Z,63.01
2023-09-08T23:52:32.104Z,63.08
2023-09-08T23:54:58.598Z,63.08
2023-09-08T23:57:25.181Z,63.27
2023-09-08T23:59:51.768Z,63.36
